Alcobaca, Brazil
Current Conditions -  °F | °C
As of 8:00 PM on Thursday 27 Nov 2014 (Local Time) from SBPS Reporting Station
Few Clouds Few Clouds  
Wind Chill: 77°   Ceiling: Unl
Heat Index: 78°   Visibility: 6mi
Dew Point: 72°   Wind: 12mph
Humidity: 83%   Direction: 30°NNE
Pressure: 29.91"   Gusts: NA
Location:  17.52°S, 39.2°W
Report Text: SBPS 272300Z 03010KT 9999 FEW020 25/22 Q1013
Loading
Personal Weather Stations






























Interactive Weather Map New forecast layout! Learn more

10-Day Weather Forecast

Advertisements
Track Severe Weather on mobile